Time;durP1;ratioP1;P1;durP2;ratioP2;P2;SDS_P1;SDS_P2;PMS_P1;PMS_P2;Temp;Humidity;BMP_temperature;BMP_pressure;BME280_temperature;BME280_humidity;BME280_pressure;Samples;Min_cycle;Max_cycle;Signal;HPM_P1;HPM_P2
2022/08/22 00:02:42;;;;;;;3.30;2.30;;;22.70;50.90;;;-142.21;51.80;112049.66;5054392;28;20551;-72
2022/08/22 00:05:27;;;;;;;4.17;2.43;;;22.70;51.10;;;-142.21;52.14;112049.66;5054919;28;20639;-72
2022/08/22 00:08:07;;;;;;;3.53;2.50;;;22.70;51.30;;;-142.21;52.35;112049.66;5037279;28;20197;-72
2022/08/22 00:10:54;;;;;;;2.67;2.47;;;22.60;51.20;;;-142.21;52.10;112049.66;5055765;28;20201;-72
2022/08/22 00:13:32;;;;;;;4.17;2.77;;;22.60;51.20;;;-142.21;51.99;112049.66;5054712;28;20194;-72
2022/08/22 00:16:09;;;;;;;2.97;2.67;;;22.60;50.90;;;-142.21;50.40;112049.66;5022923;28;20209;-72
2022/08/22 00:18:48;;;;;;;6.80;2.70;;;22.60;50.60;;;-142.21;50.30;112049.66;5055442;28;20251;-72
2022/08/22 00:21:26;;;;;;;3.20;2.77;;;22.50;50.40;;;-142.21;49.89;112049.66;5054933;28;20209;-72
2022/08/22 00:24:12;;;;;;;4.00;2.60;;;22.50;50.30;;;-142.21;49.38;112049.66;5055506;28;20205;-72
2022/08/22 00:26:48;;;;;;;3.47;2.90;;;22.50;50.30;;;-142.21;50.30;112049.66;5055239;28;20225;-72
2022/08/22 00:29:23;;;;;;;4.20;2.93;;;22.50;50.50;;;-142.21;50.34;112049.66;5054384;28;20198;-72
2022/08/22 00:32:02;;;;;;;4.20;2.67;;;22.50;50.30;;;-142.21;50.03;112049.66;5055465;28;20225;-72
2022/08/22 00:34:40;;;;;;;4.27;2.80;;;22.50;50.30;;;-142.21;49.36;112049.66;5054655;28;20262;-72
2022/08/22 00:37:19;;;;;;;3.60;2.97;;;22.50;50.30;;;-142.21;49.87;112049.66;5055088;28;20230;-72
2022/08/22 00:39:55;;;;;;;3.70;2.40;;;22.50;50.50;;;-142.21;50.07;112049.66;5055209;28;20564;-72
2022/08/22 00:43:07;;;;;;;3.63;2.83;;;22.50;50.50;;;-142.21;49.32;112049.66;5054375;28;20186;-72
2022/08/22 00:46:14;;;;;;;3.60;2.60;;;22.40;50.50;;;-142.21;50.06;112049.66;5052307;28;20666;-72
2022/08/22 00:49:46;;;;;;;4.70;2.50;;;22.40;51.00;;;-142.21;51.54;112049.66;5055021;28;20190;-71
2022/08/22 00:53:03;;;;;;;3.20;2.50;;;22.30;51.50;;;-142.21;52.03;112049.66;4995869;28;20570;-71
2022/08/22 00:56:02;;;;;;;3.53;2.43;;;22.30;51.80;;;-142.21;51.79;112049.66;5047849;28;20241;-72
2022/08/22 00:59:03;;;;;;;3.27;2.80;;;22.40;51.50;;;-142.21;52.65;112049.66;5053503;28;20251;-72
2022/08/22 01:01:36;;;;;;;3.60;2.70;;;22.40;51.90;;;-142.21;52.84;112049.66;5034493;28;20209;-72
2022/08/22 01:04:56;;;;;;;4.73;2.47;;;22.40;51.60;;;-142.21;52.25;112049.66;5054383;28;20254;-73
2022/08/22 01:07:47;;;;;;;3.50;2.60;;;22.40;51.80;;;-142.21;51.94;112049.66;5054164;28;20236;-72
2022/08/22 01:10:47;;;;;;;3.73;2.40;;;22.40;51.60;;;-142.21;52.42;112049.66;5053837;28;20189;-72
2022/08/22 01:13:39;;;;;;;4.63;2.70;;;22.40;51.80;;;-142.21;52.88;112049.66;5052245;28;20662;-72
2022/08/22 01:16:31;;;;;;;6.73;2.70;;;22.40;51.80;;;-142.21;52.97;112049.66;5054245;28;20186;-72
2022/08/22 01:19:44;;;;;;;3.73;2.60;;;22.30;51.80;;;-142.21;52.79;112049.66;5054092;28;20236;-72
2022/08/22 01:22:54;;;;;;;3.17;2.40;;;22.40;52.10;;;-142.21;52.78;112049.66;5041012;28;20205;-72
2022/08/22 01:26:25;;;;;;;5.37;2.53;;;22.30;52.00;;;-142.21;52.74;112049.66;5053274;28;20194;-72
2022/08/22 01:30:03;;;;;;;3.53;2.87;;;22.30;51.90;;;-142.21;53.38;112049.66;5053646;28;20304;-71
2022/08/22 01:33:14;;;;;;;3.17;2.87;;;22.30;52.10;;;-142.21;53.60;112049.66;5025007;28;20214;-72
2022/08/22 01:36:20;;;;;;;4.57;2.73;;;22.30;52.10;;;-142.21;52.79;112049.66;5053747;28;20406;-72
2022/08/22 01:39:35;;;;;;;5.23;2.90;;;22.30;52.10;;;-142.21;52.42;112049.66;5053680;28;20198;-72
2022/08/22 01:42:42;;;;;;;6.33;2.93;;;22.20;51.80;;;-142.21;53.89;112049.66;5053492;28;20582;-71
2022/08/22 01:46:16;;;;;;;2.87;2.30;;;22.00;52.40;;;-142.21;54.83;112049.66;5020823;28;20209;-72
2022/08/22 01:48:53;;;;;;;3.10;2.57;;;21.90;52.60;;;-142.21;55.35;112049.66;5018028;28;20202;-72
2022/08/22 01:51:28;;;;;;;3.10;2.80;;;21.90;52.70;;;-142.21;55.91;112049.66;5052875;28;20642;-72
2022/08/22 01:54:05;;;;;;;2.67;2.40;;;21.90;52.70;;;-142.21;55.95;112049.66;5053845;28;20259;-73
2022/08/22 01:56:39;;;;;;;4.00;2.93;;;21.90;52.80;;;-142.21;55.62;112049.66;5052645;28;20248;-72
2022/08/22 01:59:13;;;;;;;4.07;2.50;;;21.90;52.60;;;-142.21;55.34;112049.66;5053166;28;20241;-73
2022/08/22 02:02:00;;;;;;;4.00;2.87;;;21.90;52.60;;;-142.21;55.39;112049.66;5053733;28;20264;-73
2022/08/22 02:04:39;;;;;;;3.80;2.60;;;21.90;52.80;;;-142.21;55.94;112049.66;5052938;28;20205;-72
2022/08/22 02:07:18;;;;;;;3.60;2.60;;;21.90;52.80;;;-142.21;56.04;112049.66;5051188;28;20304;-72
2022/08/22 02:10:02;;;;;;;2.97;2.63;;;21.90;53.50;;;-142.21;56.31;112049.66;5053163;28;20234;-72
2022/08/22 02:12:44;;;;;;;3.87;2.57;;;21.90;52.90;;;-142.21;56.63;112049.66;5052421;28;20202;-72
2022/08/22 02:15:24;;;;;;;3.37;2.50;;;21.90;53.10;;;-142.21;56.89;112049.66;5053711;28;20277;-72
2022/08/22 02:18:22;;;;;;;3.60;3.00;;;21.90;53.20;;;-142.21;57.35;112049.66;5053707;28;20635;-73
2022/08/22 02:21:05;;;;;;;5.20;2.50;;;21.80;53.40;;;-142.21;57.93;112049.66;5048841;28;20209;-72
2022/08/22 02:23:49;;;;;;;5.10;2.80;;;21.80;53.50;;;-142.21;58.32;112049.66;5052819;28;20198;-71
2022/08/22 02:26:24;;;;;;;3.20;2.50;;;21.80;53.50;;;-142.21;57.02;112049.66;5053442;28;20186;-72
2022/08/22 02:28:59;;;;;;;4.00;2.40;;;21.70;53.10;;;-142.21;57.09;112049.66;5053418;28;20213;-72
2022/08/22 02:31:41;;;;;;;3.43;2.63;;;21.70;53.10;;;-142.21;58.08;112049.66;5052290;28;20189;-72
2022/08/22 02:34:36;;;;;;;2.77;2.53;;;21.60;53.50;;;-142.21;58.61;112049.66;5054302;28;20285;-73
2022/08/22 02:37:13;;;;;;;4.03;2.70;;;21.60;53.80;;;-142.21;58.21;112049.66;5052496;28;20233;-71
2022/08/22 02:39:51;;;;;;;3.27;2.97;;;21.50;53.30;;;-142.21;57.95;112049.66;5053466;28;20244;-73
2022/08/22 02:42:29;;;;;;;3.27;2.87;;;21.50;53.40;;;-142.21;57.82;112049.66;5053494;28;20190;-72
2022/08/22 02:45:13;;;;;;;3.40;2.70;;;21.50;53.30;;;-142.21;57.01;112049.66;5057691;28;20253;-73
2022/08/22 02:47:56;;;;;;;5.80;2.70;;;21.50;53.10;;;-142.21;57.22;112049.66;5069420;28;20216;-72
2022/08/22 02:50:36;;;;;;;5.63;3.13;;;21.40;53.30;;;-142.21;57.75;112049.66;5071827;28;20249;-73
2022/08/22 02:53:13;;;;;;;5.37;3.30;;;21.30;53.30;;;-142.21;58.42;112049.66;5057018;28;20190;-72
2022/08/22 02:55:55;;;;;;;2.83;2.47;;;21.30;53.40;;;-142.21;59.25;112049.66;5052475;28;20194;-72
2022/08/22 02:58:42;;;;;;;3.70;2.80;;;21.20;53.60;;;-142.21;60.26;112049.66;5051738;28;20229;-72
2022/08/22 03:01:39;;;;;;;4.23;2.67;;;21.20;54.00;;;-142.21;61.20;112049.66;5052245;28;20631;-72
2022/08/22 03:04:26;;;;;;;3.43;2.67;;;21.10;54.50;;;-142.21;61.76;112049.66;5051164;28;20216;-72
2022/08/22 03:07:12;;;;;;;5.63;3.00;;;21.10;54.70;;;-142.21;62.22;112049.66;5052130;28;20210;-73
2022/08/22 03:09:48;;;;;;;4.70;3.00;;;21.00;55.00;;;-142.21;63.41;112049.66;5051534;28;20253;-72
2022/08/22 03:12:33;;;;;;;3.53;2.77;;;21.00;55.00;;;-142.21;63.51;112049.66;5052201;28;20193;-72
2022/08/22 03:15:10;;;;;;;5.30;3.10;;;20.90;55.80;;;-142.21;63.32;112049.66;5052416;28;20233;-71
2022/08/22 03:17:50;;;;;;;3.73;2.90;;;20.90;55.10;;;-142.21;63.37;112049.66;5051678;28;20186;-73
2022/08/22 03:20:40;;;;;;;3.57;3.20;;;20.80;55.20;;;-142.21;63.99;112049.66;5051598;28;20225;-73
2022/08/22 03:23:19;;;;;;;4.93;3.33;;;20.90;55.50;;;-142.21;64.32;112049.66;5052266;28;20595;-72
2022/08/22 03:25:56;;;;;;;5.00;2.67;;;20.90;55.40;;;-142.21;63.80;112049.66;5051851;28;20189;-72
2022/08/22 03:28:35;;;;;;;4.63;2.93;;;20.80;55.40;;;-142.21;64.03;112049.66;5051803;28;20619;-72
2022/08/22 03:31:15;;;;;;;3.20;2.90;;;20.80;55.60;;;-142.21;64.09;112049.66;5052086;28;20194;-72
2022/08/22 03:33:45;;;;;;;5.27;3.30;;;20.70;55.60;;;-142.21;65.07;112049.66;5052093;28;20190;-72
2022/08/22 03:36:30;;;;;;;3.37;2.57;;;20.70;55.70;;;-142.21;65.64;112049.66;5050920;28;20694;-72
2022/08/22 03:39:17;;;;;;;4.87;3.27;;;20.70;56.00;;;-142.21;65.65;112049.66;5051888;28;20194;-72
2022/08/22 03:42:20;;;;;;;3.87;2.93;;;20.70;56.20;;;-142.21;65.93;112049.66;5052157;28;20526;-73
2022/08/22 03:45:41;;;;;;;4.37;2.90;;;20.70;56.40;;;-142.21;66.44;112049.66;5052195;28;20604;-72
2022/08/22 03:48:51;;;;;;;2.87;2.53;;;20.60;56.60;;;-142.21;67.42;112049.66;5051921;28;20213;-73
2022/08/22 03:51:39;;;;;;;3.90;2.93;;;20.60;56.90;;;-142.21;67.57;112049.66;5035784;28;20674;-72
2022/08/22 03:54:40;;;;;;;6.57;3.00;;;20.60;56.60;;;-142.21;67.98;112049.66;5051915;28;20202;-71
2022/08/22 03:58:10;;;;;;;5.20;3.17;;;20.50;56.70;;;-142.21;68.22;112049.66;5051259;28;20239;-72
2022/08/22 04:01:22;;;;;;;3.60;2.83;;;20.40;57.10;;;-142.21;68.47;112049.66;5050936;28;20241;-72
2022/08/22 04:04:47;;;;;;;3.90;2.73;;;20.40;57.10;;;-142.21;68.21;112049.66;5051775;28;20190;-72
2022/08/22 04:08:18;;;;;;;3.60;3.30;;;20.30;57.10;;;-142.21;69.15;112049.66;5051228;28;20221;-71
2022/08/22 04:11:30;;;;;;;7.27;3.20;;;20.20;57.60;;;-142.21;70.28;112049.66;5051444;28;20201;-73
2022/08/22 04:14:40;;;;;;;5.57;3.33;;;20.20;57.80;;;-142.21;71.67;112049.66;5031556;28;20195;-72
2022/08/22 04:17:59;;;;;;;6.20;3.00;;;20.10;58.20;;;-142.21;71.83;112049.66;5014074;28;20203;-72
2022/08/22 04:21:11;;;;;;;2.97;2.63;;;20.00;58.60;;;-142.21;71.90;112049.66;5031354;28;20198;-72
2022/08/22 04:24:30;;;;;;;6.37;3.03;;;20.00;58.60;;;-142.21;72.87;112049.66;4996593;28;20445;-72
2022/08/22 04:27:05;;;;;;;4.17;3.47;;;19.90;59.00;;;-142.21;73.72;112049.66;5011193;28;20249;-72
2022/08/22 04:29:42;;;;;;;4.13;3.23;;;19.90;58.80;;;-142.21;71.98;112049.66;5031157;28;20209;-71
2022/08/22 04:32:20;;;;;;;4.20;2.77;;;19.90;58.40;;;-142.21;72.13;112049.66;5031218;28;20201;-72
2022/08/22 04:34:55;;;;;;;4.90;2.90;;;19.90;58.40;;;-142.21;70.70;112049.66;5031422;28;20429;-72
2022/08/22 04:37:34;;;;;;;3.43;3.13;;;19.90;58.10;;;-142.21;71.01;112049.66;5030869;28;20309;-72
2022/08/22 04:40:13;;;;;;;5.07;3.03;;;19.90;58.00;;;-142.21;73.17;112049.66;5031665;28;20244;-73
2022/08/22 04:42:50;;;;;;;11.40;4.80;;;20.00;58.70;;;-142.21;75.57;112049.66;4997914;28;20286;-72
2022/08/22 04:45:23;;;;;;;8.27;3.77;;;19.90;59.40;;;-142.21;74.60;112049.66;5031567;28;20598;-72
2022/08/22 04:47:59;;;;;;;3.90;3.17;;;19.90;59.30;;;-142.21;74.11;112049.66;5032951;28;20559;-72
2022/08/22 04:50:37;;;;;;;5.27;3.20;;;19.90;59.10;;;-142.21;75.41;112049.66;5034666;28;20297;-71
2022/08/22 04:53:23;;;;;;;9.73;4.57;;;19.90;59.50;;;-142.21;76.61;112049.66;5034685;28;20213;-73
2022/08/22 04:58:58;;;;;;;5.50;3.57;;;19.80;59.80;;;-142.21;75.20;112049.66;5032685;28;20233;-72
2022/08/22 05:01:39;;;;;;;3.27;2.93;;;19.80;59.70;;;-142.21;74.38;112049.66;5033802;28;20195;-72
2022/08/22 05:04:18;;;;;;;5.67;3.10;;;19.80;60.10;;;-142.21;74.09;112049.66;5034465;28;20198;-73
2022/08/22 05:06:52;;;;;;;3.90;3.20;;;19.80;59.30;;;-142.21;72.54;112049.66;5033744;28;20195;-72
2022/08/22 05:09:27;;;;;;;4.27;3.20;;;19.80;58.90;;;-142.21;74.56;112049.66;5034323;28;20205;-72
2022/08/22 05:12:00;;;;;;;5.17;3.13;;;19.90;59.40;;;-142.21;74.92;112049.66;5037911;28;20201;-72
2022/08/22 05:14:43;;;;;;;6.13;3.80;;;19.80;59.40;;;-142.21;75.81;112049.66;5053673;28;20692;-72
2022/08/22 05:17:16;;;;;;;5.87;3.60;;;19.80;59.70;;;-142.21;76.68;112049.66;5053991;28;20190;-73
2022/08/22 05:19:50;;;;;;;4.57;3.63;;;19.80;60.00;;;-142.21;76.90;112049.66;5053805;28;20609;-72
2022/08/22 05:22:27;;;;;;;6.03;3.43;;;19.80;60.20;;;-142.21;76.63;112049.66;5053978;28;20190;-72
2022/08/22 05:25:01;;;;;;;6.43;3.60;;;19.70;60.30;;;-142.21;75.99;112049.66;5054009;28;20205;-72
2022/08/22 05:27:34;;;;;;;7.27;3.67;;;19.70;59.80;;;-142.21;76.93;112049.66;5053552;28;20205;-72
2022/08/22 05:30:10;;;;;;;4.10;3.50;;;19.80;60.60;;;-142.21;76.61;112049.66;5054119;28;20229;-71
2022/08/22 05:32:49;;;;;;;5.30;3.57;;;19.70;60.20;;;-142.21;76.45;112049.66;5053729;28;20194;-72
2022/08/22 05:35:22;;;;;;;5.73;3.20;;;19.80;60.30;;;-142.21;76.06;112049.66;5053912;28;20194;-72
2022/08/22 05:37:56;;;;;;;4.27;3.00;;;19.80;60.10;;;-142.21;76.87;112049.66;5053652;28;20228;-73
2022/08/22 05:40:27;;;;;;;6.57;3.20;;;19.90;60.50;;;-142.21;75.86;112049.66;5054183;28;20247;-72
2022/08/22 05:42:57;;;;;;;3.83;2.80;;;19.90;59.90;;;-142.21;74.66;112049.66;5053993;28;20240;-72
2022/08/22 05:45:28;;;;;;;5.60;3.03;;;19.90;59.60;;;-142.21;73.94;112049.66;5053943;28;20202;-72
2022/08/22 05:48:05;;;;;;;6.27;3.53;;;19.90;59.30;;;-142.21;72.76;112049.66;5053439;28;20694;-72
2022/08/22 05:50:41;;;;;;;3.10;2.47;;;20.10;59.00;;;-142.21;71.51;112049.66;5053178;28;20194;-71
2022/08/22 05:53:15;;;;;;;8.70;3.10;;;20.10;58.70;;;-142.21;70.94;112049.66;5053524;28;20259;-73
2022/08/22 05:55:56;;;;;;;5.77;3.13;;;20.20;58.50;;;-142.21;70.06;112049.66;5052904;28;20202;-73
2022/08/22 05:58:49;;;;;;;4.43;3.20;;;20.30;58.40;;;-142.21;69.24;112049.66;5053009;28;20233;-72
2022/08/22 06:01:26;;;;;;;5.73;2.80;;;20.30;58.00;;;-142.21;69.34;112049.66;5054020;28;20210;-73
2022/08/22 06:04:14;;;;;;;4.63;3.50;;;20.40;57.90;;;-142.21;67.76;112049.66;5054146;28;20212;-72
2022/08/22 06:06:51;;;;;;;3.77;2.73;;;20.60;57.50;;;-142.21;67.62;112049.66;5020120;28;20212;-72
2022/08/22 06:09:31;;;;;;;5.03;2.80;;;20.60;57.10;;;-142.21;65.93;112049.66;5053796;28;20236;-72
2022/08/22 06:12:06;;;;;;;2.83;2.50;;;20.70;56.80;;;-142.21;65.36;112049.66;5053814;28;20194;-72
2022/08/22 06:14:45;;;;;;;5.70;3.10;;;20.80;56.70;;;-142.21;62.27;112049.66;5034214;28;20215;-72
2022/08/22 06:17:19;;;;;;;6.87;2.97;;;20.90;56.00;;;-142.21;62.72;112049.66;5054151;28;20194;-72
2022/08/22 06:19:52;;;;;;;2.70;2.37;;;20.90;55.70;;;-142.21;63.02;112049.66;5064173;28;20204;-72
2022/08/22 06:22:24;;;;;;;3.87;2.67;;;21.10;55.90;;;-142.21;61.37;112049.66;5068953;28;20227;-72
2022/08/22 06:25:07;;;;;;;3.47;3.03;;;21.10;55.40;;;-142.21;59.68;112049.66;5058632;28;20190;-72
2022/08/22 06:27:36;;;;;;;4.43;3.30;;;21.20;55.00;;;-142.21;59.65;112049.66;5052005;28;20190;-73
2022/08/22 06:30:06;;;;;;;6.10;2.87;;;21.30;54.60;;;-142.21;59.59;112049.66;5052842;28;20210;-73
2022/08/22 06:32:41;;;;;;;4.63;3.03;;;21.40;54.50;;;-142.21;57.69;112049.66;5052037;28;20702;-72
2022/08/22 06:35:21;;;;;;;4.77;3.10;;;21.60;54.30;;;-142.21;56.07;112049.66;5052715;28;20193;-71
2022/08/22 06:37:51;;;;;;;2.77;2.40;;;21.60;53.70;;;-142.21;55.30;112049.66;5051997;28;20828;-72
2022/08/22 06:40:20;;;;;;;4.73;3.07;;;21.70;53.30;;;-142.21;55.46;112049.66;5052412;28;20201;-73
2022/08/22 06:42:53;;;;;;;3.97;2.70;;;21.80;53.20;;;-142.21;53.76;112049.66;5051622;28;20205;-72
2022/08/22 06:45:28;;;;;;;9.47;3.10;;;21.90;52.90;;;-142.21;53.52;112049.66;5052805;28;20273;-72
2022/08/22 06:48:14;;;;;;;4.93;2.83;;;22.00;52.80;;;-142.21;54.89;112049.66;5052148;28;20271;-72
2022/08/22 06:50:48;;;;;;;3.33;2.77;;;22.10;53.10;;;-142.21;53.91;112049.66;5052181;28;20277;-72
2022/08/22 06:53:20;;;;;;;4.93;2.80;;;22.20;52.60;;;-142.21;53.97;112049.66;5052299;28;20190;-72
2022/08/22 06:55:54;;;;;;;5.37;2.90;;;22.30;52.50;;;-142.21;52.37;112049.66;5051760;28;20238;-72
2022/08/22 06:58:30;;;;;;;6.40;2.93;;;22.40;52.20;;;-142.21;51.74;112049.66;5051888;28;20705;-72
2022/08/22 07:01:04;;;;;;;4.63;2.90;;;22.50;52.20;;;-142.21;51.43;112049.66;5052175;28;20304;-71
2022/08/22 07:03:37;;;;;;;5.67;3.43;;;22.60;51.70;;;-142.21;51.44;112049.66;5051556;28;20283;-72
2022/08/22 07:06:06;;;;;;;3.30;2.63;;;22.70;51.70;;;-142.21;51.66;112049.66;5052170;28;20194;-72
2022/08/22 07:08:35;;;;;;;3.23;2.50;;;22.80;51.70;;;-142.21;50.55;112049.66;5051673;28;20225;-73
2022/08/22 07:11:15;;;;;;;6.10;2.83;;;22.80;51.30;;;-142.21;49.57;112049.66;5051985;28;20736;-72
2022/08/22 07:13:52;;;;;;;4.87;2.90;;;23.00;51.00;;;-142.21;50.37;112049.66;5051373;28;20247;-72
2022/08/22 07:16:30;;;;;;;3.67;2.80;;;23.00;51.20;;;-142.21;49.97;112049.66;5051848;28;20653;-73
2022/08/22 07:18:58;;;;;;;4.90;3.03;;;23.10;50.90;;;-142.21;48.76;112049.66;5051981;28;20647;-71
2022/08/22 07:21:30;;;;;;;3.93;3.00;;;23.20;50.70;;;-142.21;48.94;112049.66;5051959;28;20249;-72
2022/08/22 07:24:02;;;;;;;3.30;2.57;;;23.30;50.50;;;-142.21;49.43;112049.66;5051850;28;20198;-72
2022/08/22 07:26:43;;;;;;;3.70;3.10;;;23.40;50.70;;;-142.21;47.99;112049.66;5051840;28;20645;-72
2022/08/22 07:29:27;;;;;;;3.63;2.93;;;23.50;50.10;;;-142.21;47.61;112049.66;5051674;28;20301;-72
2022/08/22 07:32:10;;;;;;;3.70;3.07;;;23.70;50.00;;;-142.21;48.19;112049.66;5051527;28;20189;-72
2022/08/22 07:35:00;;;;;;;5.53;3.00;;;23.80;50.20;;;-142.21;46.41;112049.66;5032648;28;20590;-72
2022/08/22 07:37:48;;;;;;;5.43;3.30;;;24.00;49.50;;;-142.21;46.40;112049.66;5052048;28;20340;-73
2022/08/22 07:40:27;;;;;;;4.00;3.00;;;24.10;49.60;;;-142.21;46.73;112049.66;5051778;28;20213;-72
2022/08/22 07:43:04;;;;;;;3.93;2.63;;;24.30;49.70;;;-142.21;46.62;112049.66;5051089;28;20215;-72
2022/08/22 07:45:46;;;;;;;4.37;2.80;;;24.40;49.70;;;-142.21;46.32;112049.66;5051909;28;20581;-72
2022/08/22 07:48:26;;;;;;;4.33;2.80;;;24.50;49.50;;;-142.21;47.37;112049.66;5051478;28;20213;-72
2022/08/22 07:51:07;;;;;;;3.03;2.70;;;24.70;49.80;;;-142.21;44.33;112049.66;5051031;28;20189;-72
2022/08/22 07:53:42;;;;;;;3.37;2.70;;;24.80;48.30;;;-142.21;45.20;112049.66;5051038;28;20190;-72
2022/08/22 07:56:15;;;;;;;3.77;2.70;;;24.90;48.80;;;-142.21;44.63;112049.66;5051460;28;20190;-72
2022/08/22 07:58:49;;;;;;;3.87;2.77;;;25.00;48.50;;;-142.21;43.77;112049.66;5050667;28;20605;-72
2022/08/22 08:01:21;;;;;;;4.27;2.67;;;25.10;47.90;;;-142.21;45.04;112049.66;5051616;28;20200;-72
2022/08/22 08:03:58;;;;;;;3.83;2.57;;;25.20;48.60;;;-142.21;45.01;112049.66;5051288;28;20194;-72
2022/08/22 08:06:30;;;;;;;4.10;3.00;;;25.30;48.30;;;-142.21;44.33;112049.66;5051814;28;20194;-72
2022/08/22 08:08:58;;;;;;;2.50;2.30;;;25.40;48.10;;;-142.21;45.25;112049.66;5051086;28;20225;-72
2022/08/22 08:11:34;;;;;;;5.07;2.90;;;25.60;48.50;;;-142.21;46.07;112049.66;5051316;28;20327;-72
2022/08/22 08:14:07;;;;;;;6.70;2.63;;;25.70;48.70;;;-142.21;43.42;112049.66;5031675;28;20187;-73
2022/08/22 08:16:44;;;;;;;4.60;2.50;;;25.90;47.80;;;-142.21;43.71;112049.66;5030904;28;20278;-72
2022/08/22 08:19:13;;;;;;;5.57;2.67;;;26.00;47.50;;;-142.21;44.49;112049.66;5031682;28;20201;-72
2022/08/22 08:21:48;;;;;;;4.10;2.77;;;26.10;47.90;;;-142.21;43.85;112049.66;5031279;28;20264;-73
2022/08/22 08:24:24;;;;;;;5.30;2.63;;;26.10;47.80;;;-142.21;42.98;112049.66;5035402;28;20226;-73
2022/08/22 08:29:55;;;;;;;4.10;2.93;;;26.30;47.60;;;-142.21;43.43;112049.66;5034517;28;20644;-74
2022/08/22 08:32:27;;;;;;;3.17;2.70;;;26.40;47.50;;;-142.21;44.30;112049.66;5035169;28;20197;-71
2022/08/22 08:34:56;;;;;;;3.47;2.70;;;26.50;47.60;;;-142.21;45.45;112049.66;5034422;28;20198;-73
2022/08/22 08:37:33;;;;;;;3.70;2.80;;;26.50;48.00;;;-142.21;42.43;112049.66;5034935;28;20230;-73
2022/08/22 08:40:07;;;;;;;4.50;2.80;;;26.60;46.90;;;-142.21;41.64;112049.66;5035260;28;20183;-73
2022/08/22 08:43:28;;;;;;;4.77;2.90;;;26.60;46.30;;;-142.21;43.45;112049.66;5035392;28;20190;-73
2022/08/22 08:46:48;;;;;;;3.40;2.77;;;26.70;47.30;;;-142.21;43.60;112049.66;5035119;28;20611;-72
2022/08/22 08:49:41;;;;;;;5.07;3.23;;;26.90;47.40;;;-142.21;42.71;112049.66;5034913;28;20233;-72
2022/08/22 08:52:52;;;;;;;3.53;2.80;;;27.00;47.20;;;-142.21;42.21;112049.66;5034679;28;20242;-73
2022/08/22 08:55:33;;;;;;;5.67;3.20;;;27.30;46.80;;;-142.21;42.27;112049.66;5034574;28;20186;-72
2022/08/22 08:58:45;;;;;;;4.27;2.80;;;27.30;46.80;;;-142.21;41.49;112049.66;5033718;28;20779;-72
2022/08/22 09:01:57;;;;;;;5.13;3.37;;;27.40;45.80;;;-142.21;41.15;112049.66;5006880;28;20211;-72
2022/08/22 09:04:56;;;;;;;5.50;3.00;;;27.50;45.80;;;-142.21;39.89;112049.66;5034398;28;20192;-73
2022/08/22 09:07:59;;;;;;;3.73;3.17;;;27.60;45.00;;;-142.21;39.75;112049.66;5034383;28;20261;-72
2022/08/22 09:11:01;;;;;;;3.80;2.67;;;27.80;45.10;;;-142.21;39.80;112049.66;5034254;28;20248;-73
2022/08/22 09:13:53;;;;;;;6.23;2.90;;;27.80;44.80;;;-142.21;40.66;112049.66;5051304;28;20199;-73
2022/08/22 09:17:05;;;;;;;3.70;2.80;;;27.90;45.90;;;-142.21;40.81;112049.66;5054240;28;20215;-72
2022/08/22 09:20:45;;;;;;;3.83;2.80;;;28.10;45.60;;;-142.21;40.38;112049.66;5054545;28;20188;-73
2022/08/22 09:24:15;;;;;;;3.33;2.90;;;28.30;44.90;;;-142.21;39.13;112049.66;5054219;28;20202;-72
2022/08/22 09:26:50;;;;;;;4.70;3.10;;;28.50;44.20;;;-142.21;39.26;112049.66;5040576;28;20210;-72
2022/08/22 09:29:41;;;;;;;4.27;2.97;;;28.60;44.60;;;-142.21;37.90;112049.66;5054050;28;20220;-73
2022/08/22 09:32:22;;;;;;;3.17;2.57;;;28.80;43.50;;;-142.21;38.03;112049.66;5054234;28;20620;-72
2022/08/22 09:35:06;;;;;;;4.93;2.73;;;28.90;43.80;;;-142.21;38.03;112049.66;5052157;28;20605;-71
2022/08/22 09:37:51;;;;;;;3.73;2.70;;;29.10;43.60;;;-142.21;38.13;112049.66;5053776;28;20227;-73
2022/08/22 09:40:27;;;;;;;2.97;2.67;;;29.20;43.30;;;-142.21;37.41;112049.66;5053687;28;20231;-72
2022/08/22 09:43:06;;;;;;;2.97;2.63;;;29.30;42.80;;;-142.21;38.41;112049.66;5019070;28;20271;-73
2022/08/22 09:45:47;;;;;;;3.30;2.60;;;29.40;44.20;;;-142.21;36.33;112049.66;5054156;28;20283;-73
2022/08/22 09:48:54;;;;;;;3.80;2.70;;;29.50;42.10;;;-142.21;36.40;112049.66;5054017;28;20192;-73
2022/08/22 09:51:38;;;;;;;2.67;2.47;;;29.70;41.90;;;-142.21;36.66;112049.66;5054104;28;20194;-74
2022/08/22 09:54:27;;;;;;;3.93;2.70;;;29.80;42.00;;;-142.21;36.29;112049.66;5063783;28;20213;-72
2022/08/22 09:57:12;;;;;;;5.63;2.87;;;30.00;41.50;;;-142.21;36.16;112049.66;5057801;28;20224;-73
2022/08/22 10:00:01;;;;;;;3.30;2.57;;;30.10;41.70;;;-142.21;36.53;112049.66;5053051;28;20270;-73
2022/08/22 10:02:37;;;;;;;4.20;2.90;;;30.20;41.90;;;-142.21;34.67;112049.66;5053719;28;20553;-72
2022/08/22 10:05:20;;;;;;;3.10;2.60;;;30.40;40.60;;;-142.21;34.64;112049.66;5052917;28;20239;-71
2022/08/22 10:08:13;;;;;;;3.67;3.27;;;30.40;40.20;;;-142.21;34.71;112049.66;5052715;28;20291;-72
2022/08/22 10:11:18;;;;;;;4.43;2.97;;;30.50;39.90;;;-142.21;33.76;112049.66;5052402;28;20221;-71
2022/08/22 10:13:58;;;;;;;3.23;2.93;;;30.60;39.10;;;-142.21;34.57;112049.66;5046953;28;20259;-73
2022/08/22 10:16:51;;;;;;;4.57;3.07;;;30.80;39.60;;;-142.21;33.69;112049.66;5052996;28;20186;-72
2022/08/22 10:19:28;;;;;;;4.47;2.93;;;30.90;40.50;;;-142.21;33.95;112049.66;5051293;28;20232;-72
2022/08/22 10:22:22;;;;;;;3.80;2.70;;;30.90;38.80;;;-142.21;33.67;112049.66;5052275;28;20193;-73
2022/08/22 10:25:09;;;;;;;3.37;3.07;;;31.00;38.40;;;-142.21;33.58;112049.66;5052545;28;20609;-72
2022/08/22 10:28:03;;;;;;;4.03;2.80;;;31.20;38.50;;;-142.21;33.66;112049.66;5052990;28;20692;-72
2022/08/22 10:30:41;;;;;;;3.23;2.73;;;31.30;38.40;;;-142.21;32.04;112049.66;5052661;28;20769;-73
2022/08/22 10:33:27;;;;;;;3.27;2.67;;;31.50;37.50;;;-142.21;32.70;112049.66;5052896;28;20227;-73
2022/08/22 10:36:10;;;;;;;3.60;2.50;;;31.60;37.40;;;-142.21;32.64;112049.66;5052204;28;20285;-72
2022/08/22 10:38:46;;;;;;;2.80;2.40;;;31.70;37.30;;;-142.21;31.86;112049.66;5052703;28;20640;-73
2022/08/22 10:41:31;;;;;;;3.30;2.50;;;31.80;37.20;;;-142.21;31.21;112049.66;5053024;28;20194;-73
2022/08/22 10:44:12;;;;;;;6.57;2.63;;;31.90;36.40;;;-142.21;31.55;112049.66;5052373;28;20279;-73
2022/08/22 10:46:49;;;;;;;2.73;2.53;;;32.00;36.50;;;-142.21;31.40;112049.66;5052658;28;20240;-73
2022/08/22 10:49:27;;;;;;;3.07;2.73;;;32.10;36.00;;;-142.21;31.59;112049.66;5052405;28;20210;-72
2022/08/22 10:52:05;;;;;;;3.87;2.60;;;32.20;36.30;;;-142.21;29.37;112049.66;5052099;28;20396;-73
2022/08/22 10:54:48;;;;;;;2.50;2.30;;;32.30;34.20;;;-142.21;30.16;112049.66;5053000;28;20490;-71
2022/08/22 10:57:59;;;;;;;3.53;2.47;;;32.30;34.50;;;-142.21;30.38;112049.66;5052342;28;20233;-73
2022/08/22 11:00:52;;;;;;;2.30;2.10;;;32.40;34.40;;;-142.21;30.58;112049.66;5050172;28;20689;-72
2022/08/22 11:03:35;;;;;;;3.27;2.37;;;32.50;34.50;;;-142.21;30.72;112049.66;5052107;28;20663;-72
2022/08/22 11:06:13;;;;;;;2.50;2.30;;;32.60;35.40;;;-142.21;31.42;112049.66;5051787;28;20293;-73
2022/08/22 11:09:15;;;;;;;3.03;2.60;;;32.70;35.60;;;-142.21;31.26;112049.66;5052177;28;20220;-73
2022/08/22 11:11:57;;;;;;;2.67;2.33;;;32.90;35.10;;;-142.21;29.85;112049.66;5052320;28;20237;-73
2022/08/22 11:15:06;;;;;;;3.10;2.63;;;33.00;34.10;;;-142.21;29.76;112049.66;5052431;28;20655;-72
2022/08/22 11:18:19;;;;;;;2.50;2.30;;;33.00;33.20;;;-142.21;29.53;112049.66;5051958;28;20194;-73
2022/08/22 11:21:00;;;;;;;3.33;2.63;;;33.20;33.10;;;-142.21;29.39;112049.66;5051581;28;20676;-73
2022/08/22 11:23:44;;;;;;;4.60;3.10;;;33.30;33.10;;;-142.21;29.39;112049.66;5051924;28;20202;-73